Sao Raimundo das Mangabeiras, Brazil
Current Conditions -  °F | °C
As of 8:00 PM on Sunday 21 Dec 2014 (Local Time) from SBIZ Reporting Station
Few Clouds Few Clouds  
Wind Chill: 82°   Ceiling: Unl
Heat Index: 91°   Visibility: 6mi
Dew Point: 77°   Wind: 0mph
Humidity: 84%   Direction: NA
Pressure: 29.83"   Gusts: NA
Location:  7.02°S, 45.48°W
Report Text: SBIZ 212300Z 00000KT 9999 FEW030 28/25 Q1010
Loading
Personal Weather Stations






























Interactive Weather Map New forecast layout! Learn more

10-Day Weather Forecast

Advertisements
Track Severe Weather on mobile